sensor_id;sensor_type;location;lat;lon;timestamp;pressure;altitude;pressure_sealevel;temperature;humidity
36380;BME280;22411;53.016;18.632;2023-08-06T00:00:21;99774.84;;;16.90;100.00
36380;BME280;22411;53.016;18.632;2023-08-06T00:03:07;99762.75;;;16.89;100.00
36380;BME280;22411;53.016;18.632;2023-08-06T00:05:32;99748.84;;;16.88;100.00
36380;BME280;22411;53.016;18.632;2023-08-06T00:07:58;99753.09;;;16.89;100.00
36380;BME280;22411;53.016;18.632;2023-08-06T00:10:24;99746.06;;;16.90;100.00
36380;BME280;22411;53.016;18.632;2023-08-06T00:12:49;99735.75;;;16.88;100.00
36380;BME280;22411;53.016;18.632;2023-08-06T00:15:15;99736.09;;;16.85;100.00
36380;BME280;22411;53.016;18.632;2023-08-06T00:17:44;99733.28;;;16.87;100.00
36380;BME280;22411;53.016;18.632;2023-08-06T00:20:12;99732.81;;;16.83;100.00
36380;BME280;22411;53.016;18.632;2023-08-06T00:22:38;99724.97;;;16.83;100.00
36380;BME280;22411;53.016;18.632;2023-08-06T00:25:04;99720.72;;;16.82;100.00
36380;BME280;22411;53.016;18.632;2023-08-06T00:27:31;99709.41;;;16.82;100.00
36380;BME280;22411;53.016;18.632;2023-08-06T00:29:57;99700.09;;;16.79;100.00
36380;BME280;22411;53.016;18.632;2023-08-06T00:32:23;99688.16;;;16.77;100.00
36380;BME280;22411;53.016;18.632;2023-08-06T00:34:49;99679.50;;;16.76;100.00
36380;BME280;22411;53.016;18.632;2023-08-06T00:37:18;99675.06;;;16.77;100.00
36380;BME280;22411;53.016;18.632;2023-08-06T00:39:44;99674.59;;;16.73;100.00
36380;BME280;22411;53.016;18.632;2023-08-06T00:42:11;99671.16;;;16.72;100.00
36380;BME280;22411;53.016;18.632;2023-08-06T00:44:37;99666.09;;;16.71;100.00
36380;BME280;22411;53.016;18.632;2023-08-06T00:47:03;99656.09;;;16.66;100.00
36380;BME280;22411;53.016;18.632;2023-08-06T00:49:29;99655.25;;;16.66;100.00
36380;BME280;22411;53.016;18.632;2023-08-06T00:51:56;99652.00;;;16.64;100.00
36380;BME280;22411;53.016;18.632;2023-08-06T00:54:22;99624.38;;;16.61;100.00
36380;BME280;22411;53.016;18.632;2023-08-06T00:56:49;99630.75;;;16.59;100.00
36380;BME280;22411;53.016;18.632;2023-08-06T00:59:14;99631.09;;;16.56;100.00
36380;BME280;22411;53.016;18.632;2023-08-06T01:01:40;99629.63;;;16.53;100.00
36380;BME280;22411;53.016;18.632;2023-08-06T01:04:06;99616.53;;;16.53;100.00
36380;BME280;22411;53.016;18.632;2023-08-06T01:07:02;99606.56;;;16.48;100.00
36380;BME280;22411;53.016;18.632;2023-08-06T01:09:50;99601.81;;;16.44;100.00
36380;BME280;22411;53.016;18.632;2023-08-06T01:12:38;99591.22;;;16.45;100.00
36380;BME280;22411;53.016;18.632;2023-08-06T01:15:28;99578.13;;;16.45;100.00
36380;BME280;22411;53.016;18.632;2023-08-06T01:17:54;99576.47;;;16.44;100.00
36380;BME280;22411;53.016;18.632;2023-08-06T01:20:20;99553.94;;;16.43;100.00
36380;BME280;22411;53.016;18.632;2023-08-06T01:22:46;99550.19;;;16.46;100.00
36380;BME280;22411;53.016;18.632;2023-08-06T01:25:13;99527.78;;;16.43;100.00
36380;BME280;22411;53.016;18.632;2023-08-06T01:27:51;99519.13;;;16.43;100.00
36380;BME280;22411;53.016;18.632;2023-08-06T01:30:24;99501.63;;;16.43;100.00
36380;BME280;22411;53.016;18.632;2023-08-06T01:32:58;99480.72;;;16.43;100.00
36380;BME280;22411;53.016;18.632;2023-08-06T01:35:25;99460.28;;;16.47;100.00
36380;BME280;22411;53.016;18.632;2023-08-06T01:37:52;99434.44;;;16.44;100.00
36380;BME280;22411;53.016;18.632;2023-08-06T01:40:17;99420.38;;;16.45;100.00
36380;BME280;22411;53.016;18.632;2023-08-06T01:42:43;99382.47;;;16.49;100.00
36380;BME280;22411;53.016;18.632;2023-08-06T01:45:09;99367.94;;;16.46;100.00
36380;BME280;22411;53.016;18.632;2023-08-06T01:47:35;99352.88;;;16.48;100.00
36380;BME280;22411;53.016;18.632;2023-08-06T01:50:01;99351.88;;;16.50;100.00
36380;BME280;22411;53.016;18.632;2023-08-06T01:52:27;99347.47;;;16.50;100.00
36380;BME280;22411;53.016;18.632;2023-08-06T01:54:53;99355.81;;;16.54;100.00
36380;BME280;22411;53.016;18.632;2023-08-06T01:57:19;99375.44;;;16.50;100.00
36380;BME280;22411;53.016;18.632;2023-08-06T01:59:44;99409.13;;;16.44;100.00
36380;BME280;22411;53.016;18.632;2023-08-06T02:02:10;99433.31;;;16.46;100.00
36380;BME280;22411;53.016;18.632;2023-08-06T02:04:36;99440.66;;;16.51;100.00
36380;BME280;22411;53.016;18.632;2023-08-06T02:07:02;99425.44;;;16.55;100.00
36380;BME280;22411;53.016;18.632;2023-08-06T02:09:27;99423.28;;;16.58;100.00
36380;BME280;22411;53.016;18.632;2023-08-06T02:11:53;99416.09;;;16.60;100.00
36380;BME280;22411;53.016;18.632;2023-08-06T02:14:18;99419.50;;;16.61;100.00
36380;BME280;22411;53.016;18.632;2023-08-06T02:16:44;99429.16;;;16.60;100.00
36380;BME280;22411;53.016;18.632;2023-08-06T02:19:10;99429.81;;;16.62;100.00
36380;BME280;22411;53.016;18.632;2023-08-06T02:21:35;99402.34;;;16.66;100.00
36380;BME280;22411;53.016;18.632;2023-08-06T02:24:01;99402.16;;;16.68;100.00
36380;BME280;22411;53.016;18.632;2023-08-06T02:26:27;99400.53;;;16.67;100.00
36380;BME280;22411;53.016;18.632;2023-08-06T02:28:53;99399.06;;;16.64;100.00
36380;BME280;22411;53.016;18.632;2023-08-06T02:31:18;99406.09;;;16.64;100.00
36380;BME280;22411;53.016;18.632;2023-08-06T02:33:44;99414.75;;;16.64;100.00
36380;BME280;22411;53.016;18.632;2023-08-06T02:36:10;99415.75;;;16.63;100.00
36380;BME280;22411;53.016;18.632;2023-08-06T02:38:35;99414.94;;;16.63;100.00
36380;BME280;22411;53.016;18.632;2023-08-06T02:41:04;99398.25;;;16.64;100.00
36380;BME280;22411;53.016;18.632;2023-08-06T02:43:30;99375.81;;;16.69;100.00
36380;BME280;22411;53.016;18.632;2023-08-06T02:46:00;99377.63;;;16.69;100.00
36380;BME280;22411;53.016;18.632;2023-08-06T02:48:26;99384.38;;;16.63;100.00
36380;BME280;22411;53.016;18.632;2023-08-06T02:50:52;99402.34;;;16.66;100.00
36380;BME280;22411;53.016;18.632;2023-08-06T02:53:17;99403.50;;;16.64;100.00
36380;BME280;22411;53.016;18.632;2023-08-06T02:55:47;99406.09;;;16.64;100.00
36380;BME280;22411;53.016;18.632;2023-08-06T02:58:14;99386.81;;;16.65;100.00
36380;BME280;22411;53.016;18.632;2023-08-06T03:00:40;99387.47;;;16.67;100.00
36380;BME280;22411;53.016;18.632;2023-08-06T03:03:06;99372.59;;;16.67;100.00
36380;BME280;22411;53.016;18.632;2023-08-06T03:05:32;99369.50;;;16.72;100.00
36380;BME280;22411;53.016;18.632;2023-08-06T03:07:57;99370.28;;;16.72;100.00
36380;BME280;22411;53.016;18.632;2023-08-06T03:10:23;99373.06;;;16.71;100.00
36380;BME280;22411;53.016;18.632;2023-08-06T03:12:49;99367.00;;;16.70;100.00
36380;BME280;22411;53.016;18.632;2023-08-06T03:15:14;99361.63;;;16.72;100.00
36380;BME280;22411;53.016;18.632;2023-08-06T03:17:40;99359.03;;;16.72;100.00
36380;BME280;22411;53.016;18.632;2023-08-06T03:20:06;99348.56;;;16.72;100.00
36380;BME280;22411;53.016;18.632;2023-08-06T03:22:32;99345.75;;;16.73;100.00
36380;BME280;22411;53.016;18.632;2023-08-06T03:24:57;99338.91;;;16.72;100.00
36380;BME280;22411;53.016;18.632;2023-08-06T03:27:23;99344.44;;;16.69;100.00
36380;BME280;22411;53.016;18.632;2023-08-06T03:29:49;99340.81;;;16.70;100.00
36380;BME280;22411;53.016;18.632;2023-08-06T03:32:18;99337.28;;;16.71;100.00
36380;BME280;22411;53.016;18.632;2023-08-06T03:34:48;99329.25;;;16.73;100.00
36380;BME280;22411;53.016;18.632;2023-08-06T03:37:13;99322.03;;;16.75;100.00
36380;BME280;22411;53.016;18.632;2023-08-06T03:39:39;99319.41;;;16.75;100.00
36380;BME280;22411;53.016;18.632;2023-08-06T03:42:05;99303.91;;;16.73;100.00
36380;BME280;22411;53.016;18.632;2023-08-06T03:44:31;99280.34;;;16.73;100.00
36380;BME280;22411;53.016;18.632;2023-08-06T03:46:56;99245.16;;;16.76;100.00
36380;BME280;22411;53.016;18.632;2023-08-06T03:49:22;99214.59;;;16.77;100.00
36380;BME280;22411;53.016;18.632;2023-08-06T03:51:48;99196.13;;;16.78;100.00
36380;BME280;22411;53.016;18.632;2023-08-06T03:54:13;99158.50;;;16.79;100.00
36380;BME280;22411;53.016;18.632;2023-08-06T03:56:39;99117.78;;;16.77;100.00
36380;BME280;22411;53.016;18.632;2023-08-06T03:59:05;99101.13;;;16.78;100.00
36380;BME280;22411;53.016;18.632;2023-08-06T04:01:30;99100.47;;;16.76;100.00
36380;BME280;22411;53.016;18.632;2023-08-06T04:03:56;99101.28;;;16.76;100.00
36380;BME280;22411;53.016;18.632;2023-08-06T04:06:21;99121.59;;;16.74;100.00
36380;BME280;22411;53.016;18.632;2023-08-06T04:08:47;99112.75;;;16.75;100.00
36380;BME280;22411;53.016;18.632;2023-08-06T04:11:12;99092.47;;;16.77;100.00
36380;BME280;22411;53.016;18.632;2023-08-06T04:13:42;99121.88;;;16.79;100.00
36380;BME280;22411;53.016;18.632;2023-08-06T04:16:08;99148.66;;;16.81;100.00
36380;BME280;22411;53.016;18.632;2023-08-06T04:18:33;99141.44;;;16.83;100.00
36380;BME280;22411;53.016;18.632;2023-08-06T04:20:59;99152.81;;;16.90;100.00
36380;BME280;22411;53.016;18.632;2023-08-06T04:23:25;99164.09;;;16.91;100.00
36380;BME280;22411;53.016;18.632;2023-08-06T04:25:50;99168.19;;;16.93;100.00
36380;BME280;22411;53.016;18.632;2023-08-06T04:28:16;99163.56;;;16.95;100.00
36380;BME280;22411;53.016;18.632;2023-08-06T04:30:41;99150.16;;;16.98;100.00
36380;BME280;22411;53.016;18.632;2023-08-06T04:33:07;99169.91;;;17.01;100.00
36380;BME280;22411;53.016;18.632;2023-08-06T04:35:33;99176.75;;;17.02;100.00
36380;BME280;22411;53.016;18.632;2023-08-06T04:37:58;99181.81;;;17.04;100.00
36380;BME280;22411;53.016;18.632;2023-08-06T04:40:24;99171.97;;;17.06;100.00
36380;BME280;22411;53.016;18.632;2023-08-06T04:42:50;99175.41;;;17.06;100.00
36380;BME280;22411;53.016;18.632;2023-08-06T04:45:15;99179.66;;;17.07;100.00
36380;BME280;22411;53.016;18.632;2023-08-06T04:47:41;99168.84;;;17.10;100.00
36380;BME280;22411;53.016;18.632;2023-08-06T04:50:07;99160.78;;;17.12;100.00
36380;BME280;22411;53.016;18.632;2023-08-06T04:52:33;99157.81;;;17.15;100.00
36380;BME280;22411;53.016;18.632;2023-08-06T04:54:59;99147.34;;;17.15;100.00
36380;BME280;22411;53.016;18.632;2023-08-06T04:57:25;99146.00;;;17.19;100.00
36380;BME280;22411;53.016;18.632;2023-08-06T04:59:50;99158.53;;;17.23;100.00
36380;BME280;22411;53.016;18.632;2023-08-06T05:02:16;99153.56;;;17.29;100.00
36380;BME280;22411;53.016;18.632;2023-08-06T05:04:41;99144.03;;;17.36;100.00
36380;BME280;22411;53.016;18.632;2023-08-06T05:07:07;99138.66;;;17.44;100.00
36380;BME280;22411;53.016;18.632;2023-08-06T05:09:32;99139.41;;;17.52;100.00
36380;BME280;22411;53.016;18.632;2023-08-06T05:12:00;99132.25;;;17.61;100.00
36380;BME280;22411;53.016;18.632;2023-08-06T05:14:26;99126.91;;;17.69;100.00
36380;BME280;22411;53.016;18.632;2023-08-06T05:16:52;99114.53;;;17.78;100.00
36380;BME280;22411;53.016;18.632;2023-08-06T05:19:17;99106.38;;;17.88;100.00
36380;BME280;22411;53.016;18.632;2023-08-06T05:21:43;99100.41;;;17.94;100.00
36380;BME280;22411;53.016;18.632;2023-08-06T05:24:08;99099.66;;;18.00;100.00
36380;BME280;22411;53.016;18.632;2023-08-06T05:26:34;99106.75;;;18.06;100.00
36380;BME280;22411;53.016;18.632;2023-08-06T05:29:00;99090.69;;;18.09;100.00
36380;BME280;22411;53.016;18.632;2023-08-06T05:31:26;99099.34;;;18.10;100.00
36380;BME280;22411;53.016;18.632;2023-08-06T05:33:54;99089.88;;;18.09;100.00
36380;BME280;22411;53.016;18.632;2023-08-06T05:36:20;99087.41;;;18.07;100.00
36380;BME280;22411;53.016;18.632;2023-08-06T05:38:46;99086.59;;;18.07;100.00
36380;BME280;22411;53.016;18.632;2023-08-06T05:41:13;99088.41;;;18.06;100.00
36380;BME280;22411;53.016;18.632;2023-08-06T05:43:38;99079.75;;;18.06;100.00
36380;BME280;22411;53.016;18.632;2023-08-06T05:46:04;99074.31;;;18.07;100.00
36380;BME280;22411;53.016;18.632;2023-08-06T05:48:29;99080.34;;;18.08;100.00
36380;BME280;22411;53.016;18.632;2023-08-06T05:50:55;99071.31;;;18.10;100.00
36380;BME280;22411;53.016;18.632;2023-08-06T05:53:21;99070.13;;;18.13;100.00
36380;BME280;22411;53.016;18.632;2023-08-06T05:55:47;99081.41;;;18.13;100.00
36380;BME280;22411;53.016;18.632;2023-08-06T05:58:13;99077.63;;;18.16;100.00
36380;BME280;22411;53.016;18.632;2023-08-06T06:00:39;99076.88;;;18.22;100.00
36380;BME280;22411;53.016;18.632;2023-08-06T06:03:04;99078.31;;;18.24;100.00
36380;BME280;22411;53.016;18.632;2023-08-06T06:05:30;99076.31;;;18.26;100.00
36380;BME280;22411;53.016;18.632;2023-08-06T06:07:55;99074.13;;;18.30;100.00
36380;BME280;22411;53.016;18.632;2023-08-06T06:10:21;99066.06;;;18.32;100.00
36380;BME280;22411;53.016;18.632;2023-08-06T06:12:47;99060.25;;;18.36;100.00
36380;BME280;22411;53.016;18.632;2023-08-06T06:15:13;99055.84;;;18.43;100.00
36380;BME280;22411;53.016;18.632;2023-08-06T06:17:38;99051.03;;;18.47;100.00
36380;BME280;22411;53.016;18.632;2023-08-06T06:20:05;99049.28;;;18.54;100.00
36380;BME280;22411;53.016;18.632;2023-08-06T06:22:30;99040.69;;;18.67;100.00
36380;BME280;22411;53.016;18.632;2023-08-06T06:24:56;99034.31;;;18.76;100.00
36380;BME280;22411;53.016;18.632;2023-08-06T06:27:22;99037.00;;;18.83;100.00
36380;BME280;22411;53.016;18.632;2023-08-06T06:29:47;99037.22;;;18.88;100.00
36380;BME280;22411;53.016;18.632;2023-08-06T06:32:13;99032.38;;;18.91;100.00
36380;BME280;22411;53.016;18.632;2023-08-06T06:34:39;99029.75;;;18.91;100.00
36380;BME280;22411;53.016;18.632;2023-08-06T06:37:05;99035.00;;;18.91;100.00
36380;BME280;22411;53.016;18.632;2023-08-06T06:39:31;99026.88;;;18.86;100.00
36380;BME280;22411;53.016;18.632;2023-08-06T06:41:56;99016.78;;;18.83;100.00
36380;BME280;22411;53.016;18.632;2023-08-06T06:44:22;99016.97;;;18.81;100.00
36380;BME280;22411;53.016;18.632;2023-08-06T06:46:47;99013.94;;;18.78;100.00
36380;BME280;22411;53.016;18.632;2023-08-06T06:49:13;98996.38;;;18.78;100.00
36380;BME280;22411;53.016;18.632;2023-08-06T06:51:39;98999.59;;;18.80;100.00
36380;BME280;22411;53.016;18.632;2023-08-06T06:54:05;99001.44;;;18.80;100.00
36380;BME280;22411;53.016;18.632;2023-08-06T06:56:30;98989.69;;;18.76;100.00
36380;BME280;22411;53.016;18.632;2023-08-06T06:58:56;98986.69;;;18.79;100.00
36380;BME280;22411;53.016;18.632;2023-08-06T07:01:21;98992.31;;;18.76;100.00
36380;BME280;22411;53.016;18.632;2023-08-06T07:03:47;98983.03;;;18.73;100.00
36380;BME280;22411;53.016;18.632;2023-08-06T07:06:13;98981.41;;;18.72;100.00
36380;BME280;22411;53.016;18.632;2023-08-06T07:08:38;98987.06;;;18.76;100.00
36380;BME280;22411;53.016;18.632;2023-08-06T07:11:05;98984.25;;;18.77;100.00
36380;BME280;22411;53.016;18.632;2023-08-06T07:13:33;98974.16;;;18.74;100.00
36380;BME280;22411;53.016;18.632;2023-08-06T07:15:59;98978.59;;;18.74;100.00
36380;BME280;22411;53.016;18.632;2023-08-06T07:18:25;98984.63;;;18.74;100.00
36380;BME280;22411;53.016;18.632;2023-08-06T07:20:51;98972.13;;;18.76;100.00
36380;BME280;22411;53.016;18.632;2023-08-06T07:23:18;98978.19;;;18.77;100.00
36380;BME280;22411;53.016;18.632;2023-08-06T07:25:46;98975.97;;;18.80;100.00
36380;BME280;22411;53.016;18.632;2023-08-06T07:28:12;98959.66;;;18.85;100.00
36380;BME280;22411;53.016;18.632;2023-08-06T07:30:41;98958.66;;;18.86;100.00
36380;BME280;22411;53.016;18.632;2023-08-06T07:33:08;98950.38;;;18.83;100.00
36380;BME280;22411;53.016;18.632;2023-08-06T07:35:34;98940.47;;;18.85;100.00
36380;BME280;22411;53.016;18.632;2023-08-06T07:37:59;98942.09;;;18.86;100.00
36380;BME280;22411;53.016;18.632;2023-08-06T07:40:25;98942.09;;;18.86;100.00
36380;BME280;22411;53.016;18.632;2023-08-06T07:42:51;98935.84;;;18.87;100.00
36380;BME280;22411;53.016;18.632;2023-08-06T07:45:16;98948.78;;;18.88;100.00
36380;BME280;22411;53.016;18.632;2023-08-06T07:47:43;98940.09;;;18.88;100.00
36380;BME280;22411;53.016;18.632;2023-08-06T07:50:09;98938.28;;;18.88;100.00
36380;BME280;22411;53.016;18.632;2023-08-06T07:52:35;98923.34;;;18.89;100.00
36380;BME280;22411;53.016;18.632;2023-08-06T07:55:01;98924.53;;;18.86;100.00
36380;BME280;22411;53.016;18.632;2023-08-06T07:57:33;98921.09;;;18.86;100.00
36380;BME280;22411;53.016;18.632;2023-08-06T08:00:02;98908.59;;;18.88;100.00
36380;BME280;22411;53.016;18.632;2023-08-06T08:02:29;98918.09;;;18.89;100.00
36380;BME280;22411;53.016;18.632;2023-08-06T08:04:55;98907.00;;;18.93;100.00
36380;BME280;22411;53.016;18.632;2023-08-06T08:07:21;98901.56;;;18.95;100.00
36380;BME280;22411;53.016;18.632;2023-08-06T08:09:46;98900.53;;;18.96;100.00
36380;BME280;22411;53.016;18.632;2023-08-06T08:12:14;98896.31;;;19.01;100.00
36380;BME280;22411;53.016;18.632;2023-08-06T08:14:39;98889.88;;;19.04;100.00
36380;BME280;22411;53.016;18.632;2023-08-06T08:17:05;98886.63;;;19.02;100.00
36380;BME280;22411;53.016;18.632;2023-08-06T08:19:31;98879.75;;;19.01;100.00
36380;BME280;22411;53.016;18.632;2023-08-06T08:21:58;98876.75;;;19.04;100.00
36380;BME280;22411;53.016;18.632;2023-08-06T08:24:23;98880.78;;;19.06;100.00
36380;BME280;22411;53.016;18.632;2023-08-06T08:26:51;98875.53;;;19.06;100.00
36380;BME280;22411;53.016;18.632;2023-08-06T08:29:16;98858.56;;;19.09;100.00
36380;BME280;22411;53.016;18.632;2023-08-06T08:31:42;98856.34;;;19.06;100.00
36380;BME280;22411;53.016;18.632;2023-08-06T08:34:08;98858.97;;;19.06;100.00
36380;BME280;22411;53.016;18.632;2023-08-06T08:36:34;98835.13;;;19.07;100.00
36380;BME280;22411;53.016;18.632;2023-08-06T08:39:00;98823.59;;;19.08;100.00
36380;BME280;22411;53.016;18.632;2023-08-06T08:41:29;98840.00;;;19.11;100.00
36380;BME280;22411;53.016;18.632;2023-08-06T08:43:55;98842.41;;;19.12;100.00
36380;BME280;22411;53.016;18.632;2023-08-06T08:46:22;98839.56;;;19.14;100.00
36380;BME280;22411;53.016;18.632;2023-08-06T08:48:48;98844.03;;;19.13;100.00
36380;BME280;22411;53.016;18.632;2023-08-06T08:51:15;98845.25;;;19.17;100.00
36380;BME280;22411;53.016;18.632;2023-08-06T08:53:44;98829.50;;;19.17;100.00
36380;BME280;22411;53.016;18.632;2023-08-06T08:56:11;98831.94;;;19.25;100.00
36380;BME280;22411;53.016;18.632;2023-08-06T08:58:38;98835.75;;;19.29;100.00
36380;BME280;22411;53.016;18.632;2023-08-06T09:01:04;98832.94;;;19.38;100.00
36380;BME280;22411;53.016;18.632;2023-08-06T09:03:30;98822.63;;;19.43;100.00
36380;BME280;22411;53.016;18.632;2023-08-06T09:05:58;98821.81;;;19.49;100.00
36380;BME280;22411;53.016;18.632;2023-08-06T09:08:28;98815.97;;;19.47;100.00
36380;BME280;22411;53.016;18.632;2023-08-06T09:10:56;98814.75;;;19.43;100.00
36380;BME280;22411;53.016;18.632;2023-08-06T09:13:22;98801.03;;;19.41;100.00
36380;BME280;22411;53.016;18.632;2023-08-06T09:15:49;98790.53;;;19.41;100.00
36380;BME280;22411;53.016;18.632;2023-08-06T09:18:25;98787.69;;;19.42;100.00
36380;BME280;22411;53.016;18.632;2023-08-06T09:20:52;98784.44;;;19.47;100.00
36380;BME280;22411;53.016;18.632;2023-08-06T09:23:17;98789.09;;;19.51;100.00
36380;BME280;22411;53.016;18.632;2023-08-06T09:25:43;98784.84;;;19.57;100.00
36380;BME280;22411;53.016;18.632;2023-08-06T09:28:09;98779.59;;;19.64;100.00
36380;BME280;22411;53.016;18.632;2023-08-06T09:30:38;98781.63;;;19.68;100.00
36380;BME280;22411;53.016;18.632;2023-08-06T09:33:08;98775.13;;;19.71;100.00
36380;BME280;22411;53.016;18.632;2023-08-06T09:35:36;98775.94;;;19.71;100.00
36380;BME280;22411;53.016;18.632;2023-08-06T09:38:08;98774.31;;;19.70;100.00
36380;BME280;22411;53.016;18.632;2023-08-06T09:40:35;98770.69;;;19.65;100.00
36380;BME280;22411;53.016;18.632;2023-08-06T09:43:01;98744.84;;;19.62;100.00
36380;BME280;22411;53.016;18.632;2023-08-06T09:45:31;98745.22;;;19.58;100.00
36380;BME280;22411;53.016;18.632;2023-08-06T09:47:58;98741.59;;;19.59;100.00
36380;BME280;22411;53.016;18.632;2023-08-06T09:50:29;98737.34;;;19.65;100.00
36380;BME280;22411;53.016;18.632;2023-08-06T09:52:55;98738.16;;;19.72;100.00
36380;BME280;22411;53.016;18.632;2023-08-06T09:55:21;98735.88;;;19.82;100.00
36380;BME280;22411;53.016;18.632;2023-08-06T09:57:49;98724.91;;;19.92;100.00
36380;BME280;22411;53.016;18.632;2023-08-06T10:00:15;98727.72;;;19.97;100.00
36380;BME280;22411;53.016;18.632;2023-08-06T10:02:42;98723.47;;;20.03;100.00
36380;BME280;22411;53.016;18.632;2023-08-06T10:05:11;98724.84;;;20.12;100.00
36380;BME280;22411;53.016;18.632;2023-08-06T10:07:38;98729.69;;;20.15;100.00
36380;BME280;22411;53.016;18.632;2023-08-06T10:10:07;98726.06;;;20.16;100.00
36380;BME280;22411;53.016;18.632;2023-08-06T10:12:35;98728.28;;;20.13;100.00
36380;BME280;22411;53.016;18.632;2023-08-06T10:15:09;98724.03;;;20.11;100.00
36380;BME280;22411;53.016;18.632;2023-08-06T10:17:36;98716.75;;;20.14;100.00
36380;BME280;22411;53.016;18.632;2023-08-06T10:20:04;98717.72;;;20.19;100.00
36380;BME280;22411;53.016;18.632;2023-08-06T10:22:33;98715.94;;;20.20;100.00
36380;BME280;22411;53.016;18.632;2023-08-06T10:25:00;98714.91;;;20.21;100.00
36380;BME280;22411;53.016;18.632;2023-08-06T10:27:40;98706.63;;;20.17;100.00
36380;BME280;22411;53.016;18.632;2023-08-06T10:30:42;98698.09;;;20.22;100.00
36380;BME280;22411;53.016;18.632;2023-08-06T10:33:09;98700.50;;;20.23;100.00
36380;BME280;22411;53.016;18.632;2023-08-06T10:35:42;98689.75;;;20.31;100.00
36380;BME280;22411;53.016;18.632;2023-08-06T10:38:15;98691.72;;;20.43;100.00
36380;BME280;22411;53.016;18.632;2023-08-06T10:43:33;98684.72;;;20.61;100.00
36380;BME280;22411;53.016;18.632;2023-08-06T10:46:01;98678.22;;;20.64;100.00
36380;BME280;22411;53.016;18.632;2023-08-06T10:48:41;98677.97;;;20.72;100.00
36380;BME280;22411;53.016;18.632;2023-08-06T10:51:11;98675.06;;;20.80;100.00
36380;BME280;22411;53.016;18.632;2023-08-06T10:53:38;98664.06;;;20.90;100.00
36380;BME280;22411;53.016;18.632;2023-08-06T10:56:13;98659.91;;;21.01;100.00
36380;BME280;22411;53.016;18.632;2023-08-06T10:58:42;98661.44;;;21.08;100.00
36380;BME280;22411;53.016;18.632;2023-08-06T11:01:08;98661.97;;;21.17;100.00
36380;BME280;22411;53.016;18.632;2023-08-06T11:03:35;98657.25;;;21.26;100.00
36380;BME280;22411;53.016;18.632;2023-08-06T11:06:02;98640.13;;;21.35;100.00
36380;BME280;22411;53.016;18.632;2023-08-06T11:08:32;98642.50;;;21.43;100.00
36380;BME280;22411;53.016;18.632;2023-08-06T11:11:12;98651.34;;;21.49;100.00
36380;BME280;22411;53.016;18.632;2023-08-06T11:13:51;98643.00;;;21.52;100.00
36380;BME280;22411;53.016;18.632;2023-08-06T11:16:19;98637.94;;;21.50;100.00
36380;BME280;22411;53.016;18.632;2023-08-06T11:18:45;98636.13;;;21.51;100.00
36380;BME280;22411;53.016;18.632;2023-08-06T11:21:11;98628.00;;;21.52;100.00
36380;BME280;22411;53.016;18.632;2023-08-06T11:23:40;98624.84;;;21.62;100.00
36380;BME280;22411;53.016;18.632;2023-08-06T11:26:07;98614.22;;;21.69;100.00
36380;BME280;22411;53.016;18.632;2023-08-06T11:28:34;98614.84;;;21.82;100.00
36380;BME280;22411;53.016;18.632;2023-08-06T11:31:00;98611.09;;;21.90;100.00
36380;BME280;22411;53.016;18.632;2023-08-06T11:33:28;98612.97;;;22.01;100.00
36380;BME280;22411;53.016;18.632;2023-08-06T11:35:55;98604.22;;;22.19;100.00
36380;BME280;22411;53.016;18.632;2023-08-06T11:38:21;98593.59;;;22.37;100.00
36380;BME280;22411;53.016;18.632;2023-08-06T11:40:47;98589.38;;;22.60;100.00
36380;BME280;22411;53.016;18.632;2023-08-06T11:43:13;98582.59;;;22.76;100.00
36380;BME280;22411;53.016;18.632;2023-08-06T11:45:40;98569.63;;;22.86;100.00
36380;BME280;22411;53.016;18.632;2023-08-06T11:48:06;98573.78;;;22.93;100.00
36380;BME280;22411;53.016;18.632;2023-08-06T11:50:37;98581.13;;;23.03;100.00
36380;BME280;22411;53.016;18.632;2023-08-06T11:53:03;98584.66;;;23.09;100.00
36380;BME280;22411;53.016;18.632;2023-08-06T11:55:29;98580.28;;;23.14;100.00
36380;BME280;22411;53.016;18.632;2023-08-06T11:57:55;98578.56;;;23.20;100.00
36380;BME280;22411;53.016;18.632;2023-08-06T12:00:24;98567.44;;;23.18;100.00
36380;BME280;22411;53.016;18.632;2023-08-06T12:02:50;98566.53;;;23.12;100.00
36380;BME280;22411;53.016;18.632;2023-08-06T12:05:22;98563.31;;;22.99;100.00
36380;BME280;22411;53.016;18.632;2023-08-06T12:07:58;98566.31;;;22.90;100.00
36380;BME280;22411;53.016;18.632;2023-08-06T12:10:25;98571.34;;;22.80;100.00
36380;BME280;22411;53.016;18.632;2023-08-06T12:12:51;98565.28;;;22.68;100.00
36380;BME280;22411;53.016;18.632;2023-08-06T12:15:17;98561.81;;;22.56;100.00
36380;BME280;22411;53.016;18.632;2023-08-06T12:17:43;98557.94;;;22.47;100.00
36380;BME280;22411;53.016;18.632;2023-08-06T12:20:09;98557.94;;;22.47;100.00
36380;BME280;22411;53.016;18.632;2023-08-06T12:22:36;98560.44;;;22.53;100.00
36380;BME280;22411;53.016;18.632;2023-08-06T12:25:06;98553.91;;;22.56;100.00
36380;BME280;22411;53.016;18.632;2023-08-06T12:27:36;98552.41;;;22.60;100.00
36380;BME280;22411;53.016;18.632;2023-08-06T12:30:03;98536.56;;;22.60;100.00
36380;BME280;22411;53.016;18.632;2023-08-06T12:32:29;98538.75;;;22.63;100.00
36380;BME280;22411;53.016;18.632;2023-08-06T12:34:55;98530.00;;;22.86;100.00
36380;BME280;22411;53.016;18.632;2023-08-06T12:37:20;98519.66;;;23.48;100.00
36380;BME280;22411;53.016;18.632;2023-08-06T12:39:46;98518.19;;;24.31;100.00
36380;BME280;22411;53.016;18.632;2023-08-06T12:42:12;98515.84;;;24.90;100.00